PILOTS ONLINE: 423    ATC ONLINE: 73

Location

IATA DGX
City St. Athan
Country  United Kingdom
Latitude 51° 24' 17" N
Longitude 3° 26' 8" W
Elevation 163 ft
Type Medium Airport

Weather

METAR
2014/07/11 23:50
EGDX 112350Z AUTO 26007KT 9999 SCT050/// 17/15 Q1017
TAF
No TAF available

Runways

08/26 5988 ft / 141 ft

Outbound flights

Inbound flights


Spotted incorrect airport information? Please login with your VATSIM ID.